createdAt,value
2022-11-29T00:01:40.563Z,50.78
2022-11-29T00:04:10.433Z,40.75
2022-11-29T00:06:39.206Z,45.38
2022-11-29T00:09:08.958Z,52.42
2022-11-29T00:11:56.208Z,50.65
2022-11-29T00:14:25.538Z,42.58
2022-11-29T00:16:55.765Z,50.55
2022-11-29T00:19:25.495Z,43.42
2022-11-29T00:21:53.480Z,51.97
2022-11-29T00:24:21.732Z,46.00
2022-11-29T00:26:50.025Z,40.55
2022-11-29T00:29:18.473Z,46.58
2022-11-29T00:31:46.740Z,42.17
2022-11-29T00:34:14.817Z,44.10
2022-11-29T00:36:44.154Z,45.85
2022-11-29T00:39:13.116Z,39.75
2022-11-29T00:41:41.379Z,49.47
2022-11-29T00:44:09.644Z,45.33
2022-11-29T00:46:38.020Z,43.58
2022-11-29T00:49:06.252Z,47.28
2022-11-29T00:51:34.230Z,42.25
2022-11-29T00:54:03.677Z,49.60
2022-11-29T00:56:31.709Z,46.38
2022-11-29T00:58:59.692Z,51.80
2022-11-29T01:01:27.763Z,47.97
2022-11-29T01:03:55.823Z,50.20
2022-11-29T01:06:23.777Z,48.55
2022-11-29T01:08:51.773Z,48.63
2022-11-29T01:11:23.143Z,48.15
2022-11-29T01:13:52.765Z,41.92
2022-11-29T01:16:20.948Z,51.35
2022-11-29T01:18:53.011Z,47.67
2022-11-29T01:21:22.810Z,46.78
2022-11-29T01:23:52.105Z,51.97
2022-11-29T01:26:24.223Z,47.22
2022-11-29T01:28:54.424Z,44.38
2022-11-29T01:31:24.634Z,49.47
2022-11-29T01:33:55.685Z,43.03
2022-11-29T01:36:23.764Z,44.30
2022-11-29T01:38:51.878Z,53.13
2022-11-29T01:41:23.279Z,47.70
2022-11-29T01:44:03.559Z,48.20
2022-11-29T01:46:33.358Z,49.45
2022-11-29T01:49:09.008Z,48.70
2022-11-29T01:51:38.604Z,48.17
2022-11-29T01:54:08.315Z,46.25
2022-11-29T01:56:39.851Z,42.65
2022-11-29T01:59:12.433Z,44.40
2022-11-29T02:01:40.476Z,44.38
2022-11-29T02:04:09.559Z,44.50
2022-11-29T02:06:38.476Z,45.42
2022-11-29T02:09:16.308Z,40.33
2022-11-29T02:12:16.545Z,49.40
2022-11-29T02:14:56.801Z,46.10
2022-11-29T02:17:35.475Z,52.53
2022-11-29T02:20:24.134Z,40.53
2022-11-29T02:22:59.229Z,45.33
2022-11-29T02:25:41.217Z,48.73
2022-11-29T02:28:40.661Z,46.50
2022-11-29T02:31:51.126Z,39.75
2022-11-29T02:34:39.305Z,34.42
2022-11-29T02:37:22.789Z,40.40
2022-11-29T02:40:04.906Z,36.90
2022-11-29T02:43:00.134Z,38.60
2022-11-29T02:45:42.961Z,34.92
2022-11-29T02:48:29.367Z,38.20
2022-11-29T02:51:05.375Z,40.30
2022-11-29T02:56:13.287Z,40.13
2022-11-29T02:58:48.642Z,41.45
2022-11-29T03:01:21.184Z,38.13
2022-11-29T03:03:56.001Z,38.97
2022-11-29T03:06:37.099Z,47.28
2022-11-29T03:09:12.750Z,43.25
2022-11-29T03:11:49.243Z,40.40
2022-11-29T03:14:24.925Z,49.55
2022-11-29T03:17:01.804Z,49.28
2022-11-29T03:19:47.886Z,45.15
2022-11-29T03:22:33.588Z,40.75
2022-11-29T03:25:08.514Z,42.65
2022-11-29T03:27:42.163Z,41.08
2022-11-29T03:30:12.374Z,39.80
2022-11-29T03:32:51.691Z,35.70
2022-11-29T03:35:25.562Z,38.08
2022-11-29T03:38:02.518Z,37.88
2022-11-29T03:40:36.605Z,37.67
2022-11-29T03:43:08.855Z,44.63
2022-11-29T03:45:45.055Z,42.20
2022-11-29T03:48:18.566Z,41.45
2022-11-29T03:50:54.209Z,41.72
2022-11-29T03:53:32.984Z,41.25
2022-11-29T03:56:03.002Z,44.58
2022-11-29T03:58:40.557Z,38.90
2022-11-29T04:01:46.220Z,40.05
2022-11-29T04:04:44.190Z,41.83
2022-11-29T04:07:32.454Z,46.08
2022-11-29T04:10:33.996Z,38.58
2022-11-29T04:13:21.857Z,37.35
2022-11-29T04:16:07.653Z,37.28
2022-11-29T04:19:00.166Z,36.35
2022-11-29T04:21:50.412Z,39.70
2022-11-29T04:24:53.358Z,40.08
2022-11-29T04:27:41.557Z,37.58
2022-11-29T04:30:14.897Z,40.15
2022-11-29T04:33:29.106Z,41.15
2022-11-29T04:36:13.911Z,42.67
2022-11-29T04:39:16.092Z,42.78
2022-11-29T04:42:10.158Z,42.13
2022-11-29T04:45:09.287Z,40.40
2022-11-29T04:47:52.209Z,36.25
2022-11-29T04:50:34.327Z,40.35
2022-11-29T04:53:26.369Z,36.13
2022-11-29T04:56:05.377Z,41.97
2022-11-29T04:58:38.744Z,37.30
2022-11-29T05:01:16.181Z,33.17
2022-11-29T05:03:56.725Z,36.97
2022-11-29T05:06:30.500Z,31.80
2022-11-29T05:09:08.254Z,34.47
2022-11-29T05:11:50.327Z,39.45
2022-11-29T05:14:29.638Z,40.38
2022-11-29T05:17:20.254Z,37.60
2022-11-29T05:20:02.200Z,40.25
2022-11-29T05:22:37.283Z,42.40
2022-11-29T05:25:31.381Z,40.23
2022-11-29T05:28:10.246Z,46.05
2022-11-29T05:31:05.156Z,39.50
2022-11-29T05:33:53.635Z,43.70
2022-11-29T05:36:29.165Z,46.50
2022-11-29T05:39:10.336Z,45.35
2022-11-29T05:41:49.452Z,42.78
2022-11-29T05:44:25.580Z,42.70
2022-11-29T05:46:58.356Z,42.40
2022-11-29T05:49:37.283Z,43.05
2022-11-29T05:52:21.452Z,42.25
2022-11-29T05:55:05.135Z,41.72
2022-11-29T05:57:42.552Z,40.20
2022-11-29T06:00:12.876Z,47.10
2022-11-29T06:02:50.020Z,47.78
2022-11-29T06:05:27.050Z,47.83
2022-11-29T06:07:59.777Z,52.28
2022-11-29T06:10:33.590Z,53.20
2022-11-29T06:13:22.056Z,48.85
2022-11-29T06:16:23.875Z,47.90
2022-11-29T06:19:21.378Z,44.53
2022-11-29T06:22:00.650Z,46.20
2022-11-29T06:24:46.359Z,46.08
2022-11-29T06:27:40.532Z,38.90
2022-11-29T06:30:12.359Z,44.30
2022-11-29T06:32:50.827Z,41.50
2022-11-29T06:35:40.986Z,46.50
2022-11-29T06:38:18.161Z,47.40
2022-11-29T06:40:48.710Z,41.92
2022-11-29T06:43:17.717Z,47.20
2022-11-29T06:45:50.190Z,43.25
2022-11-29T06:48:24.107Z,51.08
2022-11-29T06:51:01.773Z,52.00
2022-11-29T06:53:41.343Z,60.47
2022-11-29T06:56:16.869Z,48.63
2022-11-29T06:58:57.576Z,44.22
2022-11-29T07:01:35.058Z,40.25
2022-11-29T07:04:25.226Z,37.00
2022-11-29T07:06:53.901Z,37.95
2022-11-29T07:09:31.739Z,33.45
2022-11-29T07:12:00.442Z,41.30
2022-11-29T07:14:29.128Z,38.92
2022-11-29T07:17:08.501Z,36.47
2022-11-29T07:19:46.089Z,41.25
2022-11-29T07:22:30.316Z,33.88
2022-11-29T07:25:04.377Z,38.05
2022-11-29T07:27:42.734Z,35.22
2022-11-29T07:30:15.367Z,41.80
2022-11-29T07:33:00.345Z,46.28
2022-11-29T07:35:34.788Z,45.63
2022-11-29T07:38:11.093Z,40.83
2022-11-29T07:40:45.898Z,47.28
2022-11-29T07:43:28.612Z,45.75
2022-11-29T07:45:57.463Z,45.33
2022-11-29T07:48:27.078Z,36.88
2022-11-29T07:50:58.094Z,35.90
2022-11-29T07:53:26.629Z,31.42
2022-11-29T07:55:56.243Z,25.85
2022-11-29T07:58:25.087Z,28.13
2022-11-29T08:00:53.183Z,30.48
2022-11-29T08:03:21.159Z,43.65
2022-11-29T08:05:49.628Z,29.58
2022-11-29T08:08:17.827Z,32.47
2022-11-29T08:10:46.553Z,29.80
2022-11-29T08:13:16.180Z,30.05
2022-11-29T08:15:47.798Z,24.95
2022-11-29T08:18:17.195Z,26.80
2022-11-29T08:20:46.423Z,27.85
2022-11-29T08:23:15.140Z,31.25
2022-11-29T08:25:43.752Z,29.17
2022-11-29T08:28:11.842Z,33.58
2022-11-29T08:30:45.446Z,30.60
2022-11-29T08:33:14.533Z,33.05
2022-11-29T08:35:42.598Z,30.60
2022-11-29T08:38:10.671Z,29.20
2022-11-29T08:40:38.750Z,20.83
2022-11-29T08:43:06.799Z,25.60
2022-11-29T08:45:34.920Z,22.63
2022-11-29T08:48:04.460Z,22.73
2022-11-29T08:50:32.558Z,22.27
2022-11-29T08:53:18.979Z,25.45
2022-11-29T08:55:47.043Z,27.38
2022-11-29T08:58:16.611Z,23.50
2022-11-29T09:00:47.269Z,25.15
2022-11-29T09:03:34.624Z,22.98
2022-11-29T09:06:11.980Z,23.55
2022-11-29T09:08:43.373Z,22.70
2022-11-29T09:11:15.616Z,28.10
2022-11-29T09:13:45.752Z,28.67
2022-11-29T09:16:18.057Z,24.08
2022-11-29T09:18:51.844Z,29.13
2022-11-29T09:21:20.633Z,31.63
2022-11-29T09:23:48.661Z,32.17
2022-11-29T09:26:18.922Z,24.10
2022-11-29T09:28:49.362Z,28.92
2022-11-29T09:31:20.340Z,30.38
2022-11-29T09:33:50.174Z,30.30
2022-11-29T09:36:18.329Z,25.30
2022-11-29T09:38:46.343Z,25.08
2022-11-29T09:41:33.518Z,26.17
2022-11-29T09:44:11.046Z,25.60
2022-11-29T09:46:58.573Z,31.35
2022-11-29T09:49:52.033Z,25.35
2022-11-29T09:52:35.440Z,31.00
2022-11-29T09:55:11.228Z,30.35
2022-11-29T09:57:43.979Z,28.63
2022-11-29T10:00:17.374Z,28.02
2022-11-29T10:02:49.110Z,28.15
2022-11-29T10:05:23.066Z,29.40
2022-11-29T10:07:57.872Z,31.00
2022-11-29T10:10:30.710Z,33.35
2022-11-29T10:13:03.199Z,28.80
2022-11-29T10:15:35.509Z,32.45
2022-11-29T10:18:08.201Z,30.75
2022-11-29T10:20:49.064Z,35.15
2022-11-29T10:23:24.786Z,30.88
2022-11-29T10:25:55.321Z,29.40
2022-11-29T10:28:32.273Z,28.05
2022-11-29T10:31:07.334Z,26.05
2022-11-29T10:33:38.198Z,27.17
2022-11-29T10:36:17.814Z,29.08
2022-11-29T10:38:47.770Z,25.63
2022-11-29T10:41:21.672Z,27.05
2022-11-29T10:43:51.173Z,26.17
2022-11-29T10:46:29.108Z,28.15
2022-11-29T10:48:59.112Z,27.33
2022-11-29T10:51:30.910Z,24.40
2022-11-29T10:54:14.105Z,26.88
2022-11-29T10:56:42.906Z,24.90
2022-11-29T10:59:21.610Z,25.38
2022-11-29T11:01:50.065Z,25.20
2022-11-29T11:04:26.763Z,26.17
2022-11-29T11:06:57.940Z,25.50
2022-11-29T11:09:32.148Z,20.65
2022-11-29T11:12:02.286Z,21.52
2022-11-29T11:14:34.753Z,20.88
2022-11-29T11:17:18.028Z,22.88
2022-11-29T11:19:55.923Z,24.33
2022-11-29T11:22:28.425Z,21.08
2022-11-29T11:25:01.964Z,22.23
2022-11-29T11:27:35.741Z,20.13
2022-11-29T11:30:05.623Z,21.15
2022-11-29T11:32:33.736Z,20.33
2022-11-29T11:35:03.253Z,17.27
2022-11-29T11:37:35.856Z,24.50
2022-11-29T11:40:27.382Z,21.48
2022-11-29T11:43:00.232Z,20.52
2022-11-29T11:45:35.139Z,19.92
2022-11-29T11:48:06.871Z,21.63
2022-11-29T11:50:38.624Z,20.80
2022-11-29T11:53:21.222Z,18.42
2022-11-29T11:55:57.229Z,19.55
2022-11-29T11:58:27.813Z,22.17
2022-11-29T12:01:06.271Z,19.77
2022-11-29T12:03:46.323Z,20.75
2022-11-29T12:06:41.223Z,23.90
2022-11-29T12:09:19.492Z,22.63
2022-11-29T12:12:00.220Z,20.85
2022-11-29T12:14:37.763Z,23.98
2022-11-29T12:17:16.969Z,25.33
2022-11-29T12:19:56.861Z,30.17
2022-11-29T12:22:28.610Z,28.80
2022-11-29T12:25:25.651Z,32.60
2022-11-29T12:27:54.753Z,29.95
2022-11-29T12:30:22.934Z,28.83
2022-11-29T12:33:07.518Z,29.98
2022-11-29T12:35:52.612Z,30.33
2022-11-29T12:38:35.691Z,30.02
2022-11-29T12:41:19.225Z,34.05
2022-11-29T12:43:58.320Z,31.40
2022-11-29T12:46:34.265Z,31.50
2022-11-29T12:49:11.258Z,33.40
2022-11-29T12:51:48.562Z,39.00
2022-11-29T12:54:34.584Z,34.83
2022-11-29T12:57:12.812Z,33.35
2022-11-29T13:00:04.611Z,33.03
2022-11-29T13:02:44.250Z,30.45
2022-11-29T13:05:21.293Z,26.02
2022-11-29T13:08:05.322Z,31.60
2022-11-29T13:10:54.409Z,24.95
2022-11-29T13:13:32.279Z,24.27
2022-11-29T13:16:07.173Z,23.08
2022-11-29T13:18:39.719Z,23.00
2022-11-29T13:21:14.320Z,23.48
2022-11-29T13:26:41.167Z,25.15
2022-11-29T13:29:15.745Z,23.73
2022-11-29T13:31:45.118Z,28.30
2022-11-29T13:34:17.415Z,25.27
2022-11-29T13:36:54.533Z,29.08
2022-11-29T13:39:40.062Z,29.00
2022-11-29T13:42:14.854Z,32.17
2022-11-29T13:44:52.887Z,32.55
2022-11-29T13:47:21.840Z,34.13
2022-11-29T13:50:02.745Z,46.30
2022-11-29T13:52:40.647Z,36.22
2022-11-29T13:55:23.210Z,37.95
2022-11-29T13:58:15.319Z,41.75
2022-11-29T14:00:52.404Z,41.20
2022-11-29T14:03:32.207Z,36.83
2022-11-29T14:06:18.592Z,39.25
2022-11-29T14:09:25.111Z,39.45
2022-11-29T14:12:02.864Z,38.60
2022-11-29T14:14:37.411Z,42.47
2022-11-29T14:17:27.519Z,43.28
2022-11-29T14:20:34.419Z,46.50
2022-11-29T14:23:16.714Z,42.03
2022-11-29T14:26:28.760Z,38.88
2022-11-29T14:29:01.737Z,44.17
2022-11-29T14:31:52.548Z,45.97
2022-11-29T14:34:39.833Z,38.50
2022-11-29T14:37:21.399Z,40.80
2022-11-29T14:39:52.539Z,41.67
2022-11-29T14:42:22.771Z,48.38
2022-11-29T14:44:52.817Z,44.35
2022-11-29T14:47:29.977Z,44.72
2022-11-29T14:50:03.862Z,46.03
2022-11-29T14:52:34.690Z,42.35
2022-11-29T14:55:09.842Z,43.78
2022-11-29T14:58:19.517Z,43.27
2022-11-29T15:01:01.784Z,35.40
2022-11-29T15:03:37.920Z,42.00
2022-11-29T15:06:15.872Z,42.60
2022-11-29T15:08:55.280Z,40.00
2022-11-29T15:11:35.149Z,40.63
2022-11-29T15:14:16.986Z,35.35
2022-11-29T15:17:17.559Z,42.35
2022-11-29T15:20:03.056Z,39.67
2022-11-29T15:22:46.438Z,39.60
2022-11-29T15:25:47.760Z,38.00
2022-11-29T15:28:23.390Z,38.20
2022-11-29T15:31:03.599Z,40.15
2022-11-29T15:33:35.570Z,35.15
2022-11-29T15:36:07.406Z,43.17
2022-11-29T15:38:45.860Z,38.83
2022-11-29T15:41:20.656Z,42.35
2022-11-29T15:43:52.487Z,34.75
2022-11-29T15:46:22.050Z,38.92
2022-11-29T15:48:50.167Z,38.75
2022-11-29T15:51:26.653Z,50.80
2022-11-29T15:54:12.784Z,38.65
2022-11-29T15:56:46.138Z,42.92
2022-11-29T15:59:22.736Z,37.47
2022-11-29T16:01:54.533Z,51.90
2022-11-29T16:04:24.525Z,47.95
2022-11-29T16:06:55.027Z,55.13
2022-11-29T16:09:35.705Z,68.20
2022-11-29T16:12:05.553Z,69.85
2022-11-29T16:14:34.336Z,61.85
2022-11-29T16:17:05.803Z,64.72
2022-11-29T16:19:36.991Z,54.70
2022-11-29T16:22:25.918Z,55.60
2022-11-29T16:25:04.581Z,47.50
2022-11-29T16:27:34.409Z,46.95
2022-11-29T16:30:03.672Z,48.88
2022-11-29T16:32:37.013Z,54.17
2022-11-29T16:35:14.078Z,49.50
2022-11-29T16:37:45.961Z,50.38
2022-11-29T16:40:24.260Z,50.05
2022-11-29T16:43:08.794Z,48.38
2022-11-29T16:45:38.536Z,45.38
2022-11-29T16:48:32.271Z,47.08
2022-11-29T16:51:25.040Z,45.35
2022-11-29T16:53:57.856Z,43.25
2022-11-29T16:56:30.188Z,45.80
2022-11-29T16:59:20.589Z,42.25
2022-11-29T17:01:55.466Z,44.13
2022-11-29T17:04:25.165Z,43.38
2022-11-29T17:06:58.368Z,46.00
2022-11-29T17:09:28.602Z,47.20
2022-11-29T17:11:59.941Z,48.83
2022-11-29T17:14:28.421Z,43.92
2022-11-29T17:17:00.933Z,58.38
2022-11-29T17:19:30.355Z,40.60
2022-11-29T17:21:58.455Z,49.95
2022-11-29T17:24:26.554Z,45.05
2022-11-29T17:26:54.584Z,44.40
2022-11-29T17:29:27.988Z,47.50
2022-11-29T17:31:56.125Z,46.22
2022-11-29T17:34:24.344Z,47.30
2022-11-29T17:36:52.586Z,44.35
2022-11-29T17:39:21.856Z,49.53
2022-11-29T17:41:50.062Z,45.95
2022-11-29T17:44:18.203Z,49.42
2022-11-29T17:47:15.565Z,45.30
2022-11-29T17:49:44.008Z,54.33
2022-11-29T17:52:12.469Z,48.90
2022-11-29T17:54:40.529Z,66.97
2022-11-29T17:57:08.919Z,66.25
2022-11-29T17:59:37.310Z,73.43
2022-11-29T18:02:05.932Z,81.05
2022-11-29T18:04:36.191Z,123.68
2022-11-29T18:07:06.296Z,105.63
2022-11-29T18:09:34.467Z,102.47
2022-11-29T18:12:02.912Z,109.55
2022-11-29T18:14:31.685Z,111.13
2022-11-29T18:17:00.173Z,118.03
2022-11-29T18:19:30.689Z,117.82
2022-11-29T18:22:01.288Z,125.88
2022-11-29T18:24:29.800Z,120.32
2022-11-29T18:26:58.547Z,114.85
2022-11-29T18:29:28.111Z,105.70
2022-11-29T18:31:59.046Z,108.70
2022-11-29T18:34:27.276Z,107.82
2022-11-29T18:36:55.805Z,115.88
2022-11-29T18:39:25.418Z,109.70
2022-11-29T18:41:53.872Z,99.72
2022-11-29T18:44:24.422Z,107.88
2022-11-29T18:46:52.618Z,80.80
2022-11-29T18:49:20.968Z,88.78
2022-11-29T18:51:50.558Z,86.82
2022-11-29T18:54:20.914Z,89.03
2022-11-29T18:56:52.007Z,88.40
2022-11-29T18:59:22.064Z,87.53
2022-11-29T19:01:51.029Z,83.40
2022-11-29T19:04:21.574Z,85.32
2022-11-29T19:06:50.281Z,90.72
2022-11-29T19:09:21.308Z,68.88
2022-11-29T19:11:51.384Z,61.28
2022-11-29T19:14:20.440Z,62.30
2022-11-29T19:16:50.052Z,57.55
2022-11-29T19:19:19.959Z,53.55
2022-11-29T19:21:48.855Z,63.38
2022-11-29T19:24:18.751Z,57.53
2022-11-29T19:26:55.768Z,53.30
2022-11-29T19:29:24.097Z,57.55
2022-11-29T19:31:52.456Z,56.83
2022-11-29T19:34:20.722Z,61.15
2022-11-29T19:36:49.176Z,59.25
2022-11-29T19:39:18.754Z,69.32
2022-11-29T19:41:48.515Z,78.95
2022-11-29T19:44:18.438Z,85.80
2022-11-29T19:46:48.801Z,89.13
2022-11-29T19:49:17.329Z,81.25
2022-11-29T19:51:45.680Z,87.22
2022-11-29T19:54:13.786Z,84.10
2022-11-29T19:56:42.167Z,131.15
2022-11-29T19:59:11.591Z,131.85
2022-11-29T20:01:43.817Z,137.85
2022-11-29T20:04:13.493Z,105.78
2022-11-29T20:06:42.334Z,112.25
2022-11-29T20:09:14.702Z,111.88
2022-11-29T20:11:45.033Z,110.38
2022-11-29T20:14:14.710Z,111.35
2022-11-29T20:16:44.265Z,119.45
2022-11-29T20:19:14.223Z,113.75
2022-11-29T20:21:44.471Z,117.68
2022-11-29T20:24:14.453Z,110.72
2022-11-29T20:26:44.725Z,106.95
2022-11-29T20:29:14.160Z,104.13
2022-11-29T20:31:50.505Z,101.93
2022-11-29T20:34:20.491Z,84.75
2022-11-29T20:37:07.387Z,86.75
2022-11-29T20:39:42.131Z,77.80
2022-11-29T20:42:40.185Z,71.03
2022-11-29T20:45:10.221Z,60.67
2022-11-29T20:47:50.238Z,69.57
2022-11-29T20:50:23.526Z,62.30
2022-11-29T20:53:11.071Z,65.43
2022-11-29T20:55:46.311Z,73.93
2022-11-29T20:58:17.691Z,68.05
2022-11-29T21:00:46.792Z,73.90
2022-11-29T21:03:16.871Z,76.90
2022-11-29T21:05:51.552Z,76.75
2022-11-29T21:08:22.263Z,80.10
2022-11-29T21:10:51.054Z,85.80
2022-11-29T21:13:21.473Z,88.75
2022-11-29T21:15:52.164Z,87.40
2022-11-29T21:18:26.910Z,93.75
2022-11-29T21:21:05.391Z,89.47
2022-11-29T21:23:43.994Z,93.35
2022-11-29T21:26:17.733Z,99.18
2022-11-29T21:28:56.875Z,106.10
2022-11-29T21:31:25.358Z,114.10
2022-11-29T21:33:55.832Z,116.15
2022-11-29T21:36:25.037Z,93.97
2022-11-29T21:38:55.296Z,100.25
2022-11-29T21:41:23.710Z,100.75
2022-11-29T21:44:06.203Z,93.80
2022-11-29T21:46:35.217Z,92.47
2022-11-29T21:49:06.028Z,90.65
2022-11-29T21:51:34.019Z,81.07
2022-11-29T21:54:03.333Z,77.00
2022-11-29T21:56:31.507Z,90.63
2022-11-29T21:58:59.522Z,90.78
2022-11-29T22:01:28.267Z,94.30
2022-11-29T22:03:56.303Z,76.05
2022-11-29T22:06:26.412Z,76.28
2022-11-29T22:08:55.452Z,79.80
2022-11-29T22:11:31.952Z,73.03
2022-11-29T22:14:18.028Z,73.13
2022-11-29T22:16:48.424Z,78.90
2022-11-29T22:19:17.909Z,69.38
2022-11-29T22:21:49.020Z,46.95
2022-11-29T22:24:19.397Z,30.60
2022-11-29T22:26:47.761Z,41.78
2022-11-29T22:29:16.129Z,38.85
2022-11-29T22:31:46.914Z,31.60
2022-11-29T22:34:15.354Z,34.03
2022-11-29T22:36:47.624Z,28.40
2022-11-29T22:39:17.939Z,32.25
2022-11-29T22:41:52.220Z,28.45
2022-11-29T22:44:25.946Z,33.22
2022-11-29T22:46:54.012Z,27.48
2022-11-29T22:49:22.085Z,30.02
2022-11-29T22:51:50.193Z,28.45
2022-11-29T22:54:20.436Z,28.80
2022-11-29T22:56:49.523Z,27.13
2022-11-29T22:59:17.609Z,26.80
2022-11-29T23:01:45.684Z,29.25
2022-11-29T23:04:14.095Z,27.05
2022-11-29T23:06:44.425Z,22.27
2022-11-29T23:09:16.755Z,22.08
2022-11-29T23:11:51.017Z,25.48
2022-11-29T23:14:19.250Z,24.02
2022-11-29T23:16:47.519Z,23.33
2022-11-29T23:19:17.337Z,28.02
2022-11-29T23:21:46.371Z,26.65
2022-11-29T23:24:14.795Z,21.95
2022-11-29T23:26:47.207Z,25.98
2022-11-29T23:29:17.444Z,25.45
2022-11-29T23:31:46.703Z,25.02
2022-11-29T23:34:15.003Z,23.48
2022-11-29T23:36:49.633Z,25.05
2022-11-29T23:39:22.677Z,25.40
2022-11-29T23:41:52.075Z,26.27
2022-11-29T23:44:20.094Z,26.25
2022-11-29T23:46:48.160Z,25.52
2022-11-29T23:49:16.165Z,22.90
2022-11-29T23:51:44.177Z,23.75
2022-11-29T23:54:12.364Z,28.05
2022-11-29T23:56:40.479Z,26.92
2022-11-29T23:59:09.833Z,29.98
